Terminal Aerodrome Forecast
Issued by NWS

Home | Current Version | Previous Version | Text Only | Print | Product List | Glossary On
Versions: 1 2 3 4 5 6 7 8 9 10 11 12
979
FTUS45 KRIW 131720
TAFRKS
TAF
KRKS 131720Z 1318/1418 25014G20KT P6SM BKN090
     FM132000 27024G32KT P6SM SCT060 BKN100
     FM140400 26017G25KT P6SM SCT100 BKN150=

USA.gov is the U.S. government's official web portal to all federal, state and local government web resources and services.